sensor_id;sensor_type;location;lat;lon;timestamp;pressure;altitude;pressure_sealevel;temperature;humidity
13974;BME280;7060;43.770;4.008;2024-01-25T00:01:27;102698.13;;;10.75;64.91
13974;BME280;7060;43.770;4.008;2024-01-25T00:03:57;102692.41;;;10.81;64.87
13974;BME280;7060;43.770;4.008;2024-01-25T00:06:25;102684.13;;;10.85;64.73
13974;BME280;7060;43.770;4.008;2024-01-25T00:08:53;102690.91;;;10.91;64.62
13974;BME280;7060;43.770;4.008;2024-01-25T00:11:21;102690.69;;;10.94;64.29
13974;BME280;7060;43.770;4.008;2024-01-25T00:13:49;102603.06;;;10.42;64.32
13974;BME280;7060;43.770;4.008;2024-01-25T00:16:18;102587.06;;;10.42;63.96
13974;BME280;7060;43.770;4.008;2024-01-25T00:18:46;102683.34;;;10.98;63.99
13974;BME280;7060;43.770;4.008;2024-01-25T00:21:16;102676.09;;;11.00;64.10
13974;BME280;7060;43.770;4.008;2024-01-25T00:23:44;102652.25;;;10.82;64.14
13974;BME280;7060;43.770;4.008;2024-01-25T00:26:12;102677.91;;;10.99;63.97
13974;BME280;7060;43.770;4.008;2024-01-25T00:28:40;102629.44;;;10.77;63.97
13974;BME280;7060;43.770;4.008;2024-01-25T00:31:09;102673.63;;;11.11;63.70
13974;BME280;7060;43.770;4.008;2024-01-25T00:33:37;102593.19;;;10.73;63.77
13974;BME280;7060;43.770;4.008;2024-01-25T00:36:06;102653.31;;;11.08;63.61
13974;BME280;7060;43.770;4.008;2024-01-25T00:38:37;102661.28;;;11.23;63.19
13974;BME280;7060;43.770;4.008;2024-01-25T00:41:08;102564.09;;;10.68;63.25
13974;BME280;7060;43.770;4.008;2024-01-25T00:43:37;102665.69;;;11.24;63.21
13974;BME280;7060;43.770;4.008;2024-01-25T00:46:07;102474.59;;;10.18;62.84
13974;BME280;7060;43.770;4.008;2024-01-25T00:48:36;102626.69;;;11.07;63.06
13974;BME280;7060;43.770;4.008;2024-01-25T00:51:07;102651.47;;;11.23;63.10
13974;BME280;7060;43.770;4.008;2024-01-25T00:53:38;102654.84;;;11.12;62.91
13974;BME280;7060;43.770;4.008;2024-01-25T00:56:07;102650.06;;;11.03;62.97
13974;BME280;7060;43.770;4.008;2024-01-25T00:58:36;102647.22;;;10.92;63.04
13974;BME280;7060;43.770;4.008;2024-01-25T01:01:05;102632.78;;;10.80;63.46
13974;BME280;7060;43.770;4.008;2024-01-25T01:03:34;102637.28;;;10.66;63.69
13974;BME280;7060;43.770;4.008;2024-01-25T01:06:03;102642.38;;;10.55;63.62
13974;BME280;7060;43.770;4.008;2024-01-25T01:08:32;102570.47;;;10.07;64.01
13974;BME280;7060;43.770;4.008;2024-01-25T01:11:02;102639.22;;;10.34;63.70
13974;BME280;7060;43.770;4.008;2024-01-25T01:13:30;102644.94;;;10.12;63.86
13974;BME280;7060;43.770;4.008;2024-01-25T01:15:58;102643.91;;;9.99;64.34
13974;BME280;7060;43.770;4.008;2024-01-25T01:18:26;102571.28;;;9.32;64.14
13974;BME280;7060;43.770;4.008;2024-01-25T01:20:55;102580.59;;;9.41;64.66
13974;BME280;7060;43.770;4.008;2024-01-25T01:23:49;102633.53;;;9.63;64.24
13974;BME280;7060;43.770;4.008;2024-01-25T01:26:19;102633.38;;;9.50;64.88
13974;BME280;7060;43.770;4.008;2024-01-25T01:28:47;102637.16;;;9.46;64.83
13974;BME280;7060;43.770;4.008;2024-01-25T01:31:16;102637.50;;;9.40;64.43
13974;BME280;7060;43.770;4.008;2024-01-25T01:33:44;102639.47;;;9.36;64.63
13974;BME280;7060;43.770;4.008;2024-01-25T01:36:13;102601.19;;;9.06;65.20
13974;BME280;7060;43.770;4.008;2024-01-25T01:38:41;102585.19;;;8.90;65.57
13974;BME280;7060;43.770;4.008;2024-01-25T01:41:10;102627.59;;;9.10;66.23
13974;BME280;7060;43.770;4.008;2024-01-25T01:43:41;102398.13;;;7.73;65.81
13974;BME280;7060;43.770;4.008;2024-01-25T01:46:11;102644.25;;;9.14;65.83
13974;BME280;7060;43.770;4.008;2024-01-25T01:48:40;102625.44;;;9.17;65.79
13974;BME280;7060;43.770;4.008;2024-01-25T01:51:10;102623.94;;;9.29;65.96
13974;BME280;7060;43.770;4.008;2024-01-25T01:53:39;102417.13;;;8.16;66.40
13974;BME280;7060;43.770;4.008;2024-01-25T01:56:08;102621.53;;;9.56;66.35
13974;BME280;7060;43.770;4.008;2024-01-25T01:58:38;102523.78;;;9.09;66.18
13974;BME280;7060;43.770;4.008;2024-01-25T02:01:08;102617.38;;;9.81;65.94
13974;BME280;7060;43.770;4.008;2024-01-25T02:03:36;102499.38;;;9.16;65.72
13974;BME280;7060;43.770;4.008;2024-01-25T02:06:05;102624.78;;;10.06;65.96
13974;BME280;7060;43.770;4.008;2024-01-25T02:08:34;102607.06;;;10.05;65.33
13974;BME280;7060;43.770;4.008;2024-01-25T02:11:02;102626.50;;;10.07;64.86
13974;BME280;7060;43.770;4.008;2024-01-25T02:13:30;102575.34;;;9.85;64.60
13974;BME280;7060;43.770;4.008;2024-01-25T02:15:59;102630.19;;;10.21;65.00
13974;BME280;7060;43.770;4.008;2024-01-25T02:18:30;102622.09;;;10.22;64.86
13974;BME280;7060;43.770;4.008;2024-01-25T02:20:59;102622.00;;;10.24;64.40
13974;BME280;7060;43.770;4.008;2024-01-25T02:23:29;102614.59;;;10.29;64.88
13974;BME280;7060;43.770;4.008;2024-01-25T02:25:57;102565.06;;;10.09;64.38
13974;BME280;7060;43.770;4.008;2024-01-25T02:28:25;102583.00;;;10.21;64.24
13974;BME280;7060;43.770;4.008;2024-01-25T02:30:53;102600.72;;;10.38;64.13
13974;BME280;7060;43.770;4.008;2024-01-25T02:33:22;102604.88;;;10.42;64.09
13974;BME280;7060;43.770;4.008;2024-01-25T02:35:50;102479.03;;;9.75;64.00
13974;BME280;7060;43.770;4.008;2024-01-25T02:38:18;102592.22;;;10.45;63.82
13974;BME280;7060;43.770;4.008;2024-01-25T02:40:48;102591.25;;;10.46;63.66
13974;BME280;7060;43.770;4.008;2024-01-25T02:43:17;102583.53;;;10.42;63.23
13974;BME280;7060;43.770;4.008;2024-01-25T02:45:45;102586.41;;;10.39;63.51
13974;BME280;7060;43.770;4.008;2024-01-25T02:48:16;102454.22;;;9.59;63.42
13974;BME280;7060;43.770;4.008;2024-01-25T02:50:45;102572.66;;;10.31;63.52
13974;BME280;7060;43.770;4.008;2024-01-25T02:53:13;102582.56;;;10.29;63.45
13974;BME280;7060;43.770;4.008;2024-01-25T02:55:41;102543.03;;;10.05;63.09
13974;BME280;7060;43.770;4.008;2024-01-25T02:58:10;102581.72;;;10.12;63.69
13974;BME280;7060;43.770;4.008;2024-01-25T03:00:39;102578.00;;;9.85;63.32
13974;BME280;7060;43.770;4.008;2024-01-25T03:03:07;102586.41;;;9.79;63.70
13974;BME280;7060;43.770;4.008;2024-01-25T03:05:35;102580.81;;;9.68;63.98
13974;BME280;7060;43.770;4.008;2024-01-25T03:08:04;102500.31;;;9.15;64.44
13974;BME280;7060;43.770;4.008;2024-01-25T03:10:32;102388.03;;;8.29;64.13
13974;BME280;7060;43.770;4.008;2024-01-25T03:13:00;102573.38;;;9.43;64.77
13974;BME280;7060;43.770;4.008;2024-01-25T03:15:30;102580.75;;;9.38;65.33
13974;BME280;7060;43.770;4.008;2024-01-25T03:17:59;102577.41;;;9.34;65.54
13974;BME280;7060;43.770;4.008;2024-01-25T03:20:27;102581.69;;;9.37;66.21
13974;BME280;7060;43.770;4.008;2024-01-25T03:22:56;102570.94;;;9.38;66.05
13974;BME280;7060;43.770;4.008;2024-01-25T03:25:24;102570.94;;;9.38;65.36
13974;BME280;7060;43.770;4.008;2024-01-25T03:27:52;102520.09;;;9.11;65.26
13974;BME280;7060;43.770;4.008;2024-01-25T03:30:24;102560.22;;;9.40;65.76
13974;BME280;7060;43.770;4.008;2024-01-25T03:32:53;102547.31;;;9.32;65.30
13974;BME280;7060;43.770;4.008;2024-01-25T03:35:21;102499.41;;;9.01;65.47
13974;BME280;7060;43.770;4.008;2024-01-25T03:37:50;102330.78;;;7.90;65.13
13974;BME280;7060;43.770;4.008;2024-01-25T03:40:18;102554.19;;;9.05;65.09
13974;BME280;7060;43.770;4.008;2024-01-25T03:42:46;102503.69;;;8.72;65.45
13974;BME280;7060;43.770;4.008;2024-01-25T03:45:34;102459.94;;;8.27;65.46
13974;BME280;7060;43.770;4.008;2024-01-25T03:48:04;102550.28;;;8.79;65.03
13974;BME280;7060;43.770;4.008;2024-01-25T03:50:32;102562.41;;;8.69;64.80
13974;BME280;7060;43.770;4.008;2024-01-25T03:53:01;102321.91;;;7.24;64.79
13974;BME280;7060;43.770;4.008;2024-01-25T03:55:29;102539.69;;;8.46;65.69
13974;BME280;7060;43.770;4.008;2024-01-25T03:57:58;102424.56;;;7.59;65.54
13974;BME280;7060;43.770;4.008;2024-01-25T04:00:26;102483.66;;;7.81;64.93
13974;BME280;7060;43.770;4.008;2024-01-25T04:02:54;102318.22;;;6.74;65.57
13974;BME280;7060;43.770;4.008;2024-01-25T04:05:24;102554.09;;;8.07;65.92
13974;BME280;7060;43.770;4.008;2024-01-25T04:07:53;102432.44;;;7.26;65.52
13974;BME280;7060;43.770;4.008;2024-01-25T04:10:21;102364.50;;;6.69;65.51
13974;BME280;7060;43.770;4.008;2024-01-25T04:16:14;102550.41;;;7.58;65.97
13974;BME280;7060;43.770;4.008;2024-01-25T04:18:42;102393.31;;;6.58;66.13
13974;BME280;7060;43.770;4.008;2024-01-25T04:21:12;102551.13;;;7.43;66.23
13974;BME280;7060;43.770;4.008;2024-01-25T04:23:40;102548.00;;;7.35;65.65
13974;BME280;7060;43.770;4.008;2024-01-25T04:26:08;102528.63;;;7.14;66.39
13974;BME280;7060;43.770;4.008;2024-01-25T04:28:37;102546.22;;;7.17;66.28
13974;BME280;7060;43.770;4.008;2024-01-25T04:31:05;102449.41;;;6.50;66.23
13974;BME280;7060;43.770;4.008;2024-01-25T04:33:33;102462.09;;;6.43;66.45
13974;BME280;7060;43.770;4.008;2024-01-25T04:36:02;102550.25;;;6.88;66.29
13974;BME280;7060;43.770;4.008;2024-01-25T04:38:32;102548.69;;;6.84;66.68
13974;BME280;7060;43.770;4.008;2024-01-25T04:41:00;102362.63;;;5.57;66.50
13974;BME280;7060;43.770;4.008;2024-01-25T04:43:28;102351.72;;;5.44;66.94
13974;BME280;7060;43.770;4.008;2024-01-25T04:45:56;102450.81;;;6.01;67.19
13974;BME280;7060;43.770;4.008;2024-01-25T04:48:24;102551.59;;;6.59;67.10
13974;BME280;7060;43.770;4.008;2024-01-25T04:50:53;102552.88;;;6.50;66.97
13974;BME280;7060;43.770;4.008;2024-01-25T04:53:21;102491.31;;;6.03;66.81
13974;BME280;7060;43.770;4.008;2024-01-25T04:55:50;102558.69;;;7.69;62.96
13974;BME280;7060;43.770;4.008;2024-01-25T04:58:19;102559.44;;;6.99;65.29
13974;BME280;7060;43.770;4.008;2024-01-25T05:00:47;102559.78;;;6.73;66.17
13974;BME280;7060;43.770;4.008;2024-01-25T05:03:18;102549.78;;;6.59;66.65
13974;BME280;7060;43.770;4.008;2024-01-25T05:05:47;102544.06;;;6.50;66.55
13974;BME280;7060;43.770;4.008;2024-01-25T05:08:16;102554.28;;;6.38;66.50
13974;BME280;7060;43.770;4.008;2024-01-25T05:10:44;102563.28;;;6.34;66.63
13974;BME280;7060;43.770;4.008;2024-01-25T05:13:14;102571.38;;;6.31;66.72
13974;BME280;7060;43.770;4.008;2024-01-25T05:15:42;102565.28;;;6.29;66.86
13974;BME280;7060;43.770;4.008;2024-01-25T05:18:10;102517.25;;;5.96;66.79
13974;BME280;7060;43.770;4.008;2024-01-25T05:20:38;102563.59;;;6.28;66.77
13974;BME280;7060;43.770;4.008;2024-01-25T05:23:07;102570.88;;;6.23;66.94
13974;BME280;7060;43.770;4.008;2024-01-25T05:25:35;102573.91;;;6.14;66.93
13974;BME280;7060;43.770;4.008;2024-01-25T05:28:03;102539.94;;;5.82;67.27
13974;BME280;7060;43.770;4.008;2024-01-25T05:30:34;102581.47;;;6.03;67.63
13974;BME280;7060;43.770;4.008;2024-01-25T05:33:02;102578.22;;;5.96;66.90
13974;BME280;7060;43.770;4.008;2024-01-25T05:35:30;102571.59;;;5.85;67.17
13974;BME280;7060;43.770;4.008;2024-01-25T05:38:00;102585.97;;;5.79;67.49
13974;BME280;7060;43.770;4.008;2024-01-25T05:40:31;102586.97;;;5.76;67.29
13974;BME280;7060;43.770;4.008;2024-01-25T05:42:59;102584.31;;;5.76;67.20
13974;BME280;7060;43.770;4.008;2024-01-25T05:45:27;102589.88;;;5.70;67.52
13974;BME280;7060;43.770;4.008;2024-01-25T05:47:59;102581.81;;;5.73;67.18
13974;BME280;7060;43.770;4.008;2024-01-25T05:50:53;102586.44;;;5.68;66.95
13974;BME280;7060;43.770;4.008;2024-01-25T05:53:21;102589.38;;;5.61;66.65
13974;BME280;7060;43.770;4.008;2024-01-25T05:55:49;102586.97;;;5.55;67.04
13974;BME280;7060;43.770;4.008;2024-01-25T05:58:17;102553.88;;;5.21;67.00
13974;BME280;7060;43.770;4.008;2024-01-25T06:00:45;102593.75;;;5.40;66.73
13974;BME280;7060;43.770;4.008;2024-01-25T06:03:15;102591.47;;;5.31;67.55
13974;BME280;7060;43.770;4.008;2024-01-25T06:05:43;102580.81;;;5.32;67.85
13974;BME280;7060;43.770;4.008;2024-01-25T06:08:12;102597.56;;;5.33;67.70
13974;BME280;7060;43.770;4.008;2024-01-25T06:11:08;102604.34;;;5.40;68.10
13974;BME280;7060;43.770;4.008;2024-01-25T06:18:04;102601.75;;;5.17;68.89
13974;BME280;7060;43.770;4.008;2024-01-25T06:20:34;102592.94;;;5.16;69.07
13974;BME280;7060;43.770;4.008;2024-01-25T06:23:02;102581.03;;;5.04;68.23
13974;BME280;7060;43.770;4.008;2024-01-25T06:25:31;102566.56;;;4.91;68.49
13974;BME280;7060;43.770;4.008;2024-01-25T06:28:04;102596.09;;;5.02;68.96
13974;BME280;7060;43.770;4.008;2024-01-25T06:30:32;102571.75;;;4.93;69.00
13974;BME280;7060;43.770;4.008;2024-01-25T06:33:01;102582.75;;;5.05;69.13
13974;BME280;7060;43.770;4.008;2024-01-25T06:35:30;102583.50;;;5.09;68.75
13974;BME280;7060;43.770;4.008;2024-01-25T06:38:01;102572.88;;;5.10;68.86
13974;BME280;7060;43.770;4.008;2024-01-25T06:40:30;102578.03;;;5.14;68.66
13974;BME280;7060;43.770;4.008;2024-01-25T06:42:58;102568.59;;;5.06;68.75
13974;BME280;7060;43.770;4.008;2024-01-25T06:45:26;102583.09;;;5.20;69.47
13974;BME280;7060;43.770;4.008;2024-01-25T06:47:54;102533.78;;;4.94;69.42
13974;BME280;7060;43.770;4.008;2024-01-25T06:50:23;102584.75;;;5.22;69.52
13974;BME280;7060;43.770;4.008;2024-01-25T06:52:52;102580.19;;;5.26;69.71
13974;BME280;7060;43.770;4.008;2024-01-25T06:55:22;102584.09;;;5.39;69.73
13974;BME280;7060;43.770;4.008;2024-01-25T06:57:50;102508.03;;;4.99;69.87
13974;BME280;7060;43.770;4.008;2024-01-25T07:00:18;102552.44;;;5.36;70.06
13974;BME280;7060;43.770;4.008;2024-01-25T07:02:48;102579.41;;;5.67;70.18
13974;BME280;7060;43.770;4.008;2024-01-25T07:05:17;102461.81;;;5.07;69.98
13974;BME280;7060;43.770;4.008;2024-01-25T07:07:45;102579.63;;;5.83;70.43
13974;BME280;7060;43.770;4.008;2024-01-25T07:10:14;102478.97;;;5.41;70.55
13974;BME280;7060;43.770;4.008;2024-01-25T07:12:44;102567.34;;;6.02;70.48
13974;BME280;7060;43.770;4.008;2024-01-25T07:15:12;102567.94;;;6.09;70.26
13974;BME280;7060;43.770;4.008;2024-01-25T07:17:40;102558.28;;;6.08;70.09
13974;BME280;7060;43.770;4.008;2024-01-25T07:20:10;102568.88;;;6.08;70.14
13974;BME280;7060;43.770;4.008;2024-01-25T07:22:38;102434.31;;;5.32;70.26
13974;BME280;7060;43.770;4.008;2024-01-25T07:25:06;102566.88;;;6.13;69.86
13974;BME280;7060;43.770;4.008;2024-01-25T07:27:36;102567.81;;;6.12;70.00
13974;BME280;7060;43.770;4.008;2024-01-25T07:30:08;102562.25;;;6.18;70.03
13974;BME280;7060;43.770;4.008;2024-01-25T07:32:36;102559.59;;;6.18;69.80
13974;BME280;7060;43.770;4.008;2024-01-25T07:35:06;102558.81;;;6.16;70.01
13974;BME280;7060;43.770;4.008;2024-01-25T07:37:34;102556.81;;;6.21;69.92
13974;BME280;7060;43.770;4.008;2024-01-25T07:40:03;102567.81;;;6.32;69.82
13974;BME280;7060;43.770;4.008;2024-01-25T07:42:31;102532.16;;;6.19;69.83
13974;BME280;7060;43.770;4.008;2024-01-25T07:44:59;102567.00;;;6.51;69.81
13974;BME280;7060;43.770;4.008;2024-01-25T07:47:29;102571.63;;;6.66;69.26
13974;BME280;7060;43.770;4.008;2024-01-25T07:49:57;102561.94;;;6.65;69.41
13974;BME280;7060;43.770;4.008;2024-01-25T07:52:26;102564.38;;;6.69;69.01
13974;BME280;7060;43.770;4.008;2024-01-25T07:54:54;102564.25;;;6.72;69.32
13974;BME280;7060;43.770;4.008;2024-01-25T07:57:22;102560.59;;;6.75;69.26
13974;BME280;7060;43.770;4.008;2024-01-25T07:59:51;102568.34;;;6.79;69.30
13974;BME280;7060;43.770;4.008;2024-01-25T08:02:19;102563.97;;;6.78;69.20
13974;BME280;7060;43.770;4.008;2024-01-25T08:04:49;102569.69;;;6.88;69.03
13974;BME280;7060;43.770;4.008;2024-01-25T08:07:18;102564.31;;;6.90;68.92
13974;BME280;7060;43.770;4.008;2024-01-25T08:09:46;102560.31;;;7.00;69.62
13974;BME280;7060;43.770;4.008;2024-01-25T08:12:18;102557.47;;;7.40;69.41
13974;BME280;7060;43.770;4.008;2024-01-25T08:14:46;102555.44;;;7.81;69.32
13974;BME280;7060;43.770;4.008;2024-01-25T08:17:14;102552.63;;;8.36;69.04
13974;BME280;7060;43.770;4.008;2024-01-25T08:19:43;102549.56;;;8.93;68.28
13974;BME280;7060;43.770;4.008;2024-01-25T08:22:14;102544.91;;;9.43;66.95
13974;BME280;7060;43.770;4.008;2024-01-25T08:24:43;102533.34;;;9.89;66.56
13974;BME280;7060;43.770;4.008;2024-01-25T08:27:12;102533.03;;;10.39;65.46
13974;BME280;7060;43.770;4.008;2024-01-25T08:29:42;102537.66;;;10.78;63.90
13974;BME280;7060;43.770;4.008;2024-01-25T08:32:10;102532.56;;;11.16;62.90
13974;BME280;7060;43.770;4.008;2024-01-25T08:34:41;102534.22;;;11.58;62.21
13974;BME280;7060;43.770;4.008;2024-01-25T08:37:10;102527.59;;;11.91;61.50
13974;BME280;7060;43.770;4.008;2024-01-25T08:39:39;102531.47;;;12.37;60.20
13974;BME280;7060;43.770;4.008;2024-01-25T08:42:08;102520.41;;;12.67;59.16
13974;BME280;7060;43.770;4.008;2024-01-25T08:44:46;102533.31;;;13.11;58.36
13974;BME280;7060;43.770;4.008;2024-01-25T08:47:17;102540.53;;;13.35;57.70
13974;BME280;7060;43.770;4.008;2024-01-25T08:49:46;102548.47;;;13.60;57.16
13974;BME280;7060;43.770;4.008;2024-01-25T08:52:15;102546.69;;;13.72;56.16
13974;BME280;7060;43.770;4.008;2024-01-25T08:54:44;102549.25;;;13.73;55.16
13974;BME280;7060;43.770;4.008;2024-01-25T08:57:13;102552.16;;;13.70;54.48
13974;BME280;7060;43.770;4.008;2024-01-25T08:59:42;102548.97;;;13.89;54.80
13974;BME280;7060;43.770;4.008;2024-01-25T09:02:10;102542.53;;;14.03;55.38
13974;BME280;7060;43.770;4.008;2024-01-25T09:04:38;102542.56;;;14.14;54.94
13974;BME280;7060;43.770;4.008;2024-01-25T09:07:10;102540.25;;;14.20;55.08
13974;BME280;7060;43.770;4.008;2024-01-25T09:09:38;102539.66;;;14.28;54.75
13974;BME280;7060;43.770;4.008;2024-01-25T09:12:08;102536.72;;;14.31;53.89
13974;BME280;7060;43.770;4.008;2024-01-25T09:14:38;102538.44;;;14.32;53.31
13974;BME280;7060;43.770;4.008;2024-01-25T09:17:07;102532.94;;;14.34;53.43
13974;BME280;7060;43.770;4.008;2024-01-25T09:19:35;102528.53;;;14.33;53.66
13974;BME280;7060;43.770;4.008;2024-01-25T09:22:04;102529.75;;;14.29;53.61
13974;BME280;7060;43.770;4.008;2024-01-25T09:24:32;102536.72;;;14.31;53.81
13974;BME280;7060;43.770;4.008;2024-01-25T09:27:03;102536.97;;;14.28;54.07
13974;BME280;7060;43.770;4.008;2024-01-25T09:29:32;102539.88;;;14.25;54.43
13974;BME280;7060;43.770;4.008;2024-01-25T09:32:01;102539.88;;;14.25;54.10
13974;BME280;7060;43.770;4.008;2024-01-25T09:34:29;102549.53;;;14.28;53.93
13974;BME280;7060;43.770;4.008;2024-01-25T09:36:57;102539.88;;;14.25;53.11
13974;BME280;7060;43.770;4.008;2024-01-25T09:39:26;102552.97;;;14.30;53.32
13974;BME280;7060;43.770;4.008;2024-01-25T09:41:54;102541.38;;;14.40;53.57
13974;BME280;7060;43.770;4.008;2024-01-25T09:44:22;102551.69;;;14.46;53.41
13974;BME280;7060;43.770;4.008;2024-01-25T09:46:53;102551.91;;;14.54;53.20
13974;BME280;7060;43.770;4.008;2024-01-25T09:49:21;102542.63;;;14.59;52.25
13974;BME280;7060;43.770;4.008;2024-01-25T09:51:51;102540.44;;;14.64;52.04
13974;BME280;7060;43.770;4.008;2024-01-25T09:54:19;102548.03;;;14.70;52.30
13974;BME280;7060;43.770;4.008;2024-01-25T09:56:51;102550.09;;;14.77;52.05
13974;BME280;7060;43.770;4.008;2024-01-25T09:59:19;102550.38;;;14.74;51.64
13974;BME280;7060;43.770;4.008;2024-01-25T10:01:48;102553.16;;;14.84;51.57
13974;BME280;7060;43.770;4.008;2024-01-25T10:04:18;102557.78;;;14.93;52.01
13974;BME280;7060;43.770;4.008;2024-01-25T10:06:50;102546.44;;;15.01;52.23
13974;BME280;7060;43.770;4.008;2024-01-25T10:09:18;102538.13;;;15.04;50.58
13974;BME280;7060;43.770;4.008;2024-01-25T10:11:46;102542.84;;;15.11;51.20
13974;BME280;7060;43.770;4.008;2024-01-25T10:14:29;102540.78;;;15.15;50.83
13974;BME280;7060;43.770;4.008;2024-01-25T10:16:57;102542.09;;;15.20;50.13
13974;BME280;7060;43.770;4.008;2024-01-25T10:19:27;102547.84;;;15.27;50.57
13974;BME280;7060;43.770;4.008;2024-01-25T10:21:56;102544.06;;;15.30;50.38
13974;BME280;7060;43.770;4.008;2024-01-25T10:24:25;102539.25;;;15.33;50.41
13974;BME280;7060;43.770;4.008;2024-01-25T10:26:53;102542.53;;;15.37;49.68
13974;BME280;7060;43.770;4.008;2024-01-25T10:29:21;102533.75;;;15.35;49.99
13974;BME280;7060;43.770;4.008;2024-01-25T10:31:50;102532.13;;;15.43;49.93
13974;BME280;7060;43.770;4.008;2024-01-25T10:34:18;102528.69;;;15.52;50.41
13974;BME280;7060;43.770;4.008;2024-01-25T10:36:49;102527.69;;;15.65;49.60
13974;BME280;7060;43.770;4.008;2024-01-25T10:39:21;102523.88;;;15.67;49.52
13974;BME280;7060;43.770;4.008;2024-01-25T10:41:49;102522.50;;;15.73;49.69
13974;BME280;7060;43.770;4.008;2024-01-25T10:44:19;102523.84;;;15.78;48.78
13974;BME280;7060;43.770;4.008;2024-01-25T10:46:48;102525.72;;;15.87;49.19
13974;BME280;7060;43.770;4.008;2024-01-25T10:49:18;102520.69;;;15.94;49.20
13974;BME280;7060;43.770;4.008;2024-01-25T10:51:48;102503.41;;;15.97;48.77
13974;BME280;7060;43.770;4.008;2024-01-25T10:54:18;102505.59;;;16.03;49.00
13974;BME280;7060;43.770;4.008;2024-01-25T10:56:46;102486.72;;;16.03;48.81
13974;BME280;7060;43.770;4.008;2024-01-25T10:59:16;102487.94;;;16.19;48.81
13974;BME280;7060;43.770;4.008;2024-01-25T11:01:45;102490.13;;;16.25;48.18
13974;BME280;7060;43.770;4.008;2024-01-25T11:04:40;102487.63;;;16.34;48.01
13974;BME280;7060;43.770;4.008;2024-01-25T11:07:11;102487.22;;;16.38;47.40
13974;BME280;7060;43.770;4.008;2024-01-25T11:09:39;102474.72;;;16.37;47.37
13974;BME280;7060;43.770;4.008;2024-01-25T11:12:12;102475.88;;;16.44;47.74
13974;BME280;7060;43.770;4.008;2024-01-25T11:14:41;102477.22;;;16.59;48.20
13974;BME280;7060;43.770;4.008;2024-01-25T11:17:16;102477.00;;;16.72;47.15
13974;BME280;7060;43.770;4.008;2024-01-25T11:19:48;102472.19;;;16.76;46.31
13974;BME280;7060;43.770;4.008;2024-01-25T11:22:17;102460.84;;;16.82;46.57
13974;BME280;7060;43.770;4.008;2024-01-25T11:24:46;102463.47;;;16.93;46.69
13974;BME280;7060;43.770;4.008;2024-01-25T11:27:16;102463.44;;;17.03;46.55
13974;BME280;7060;43.770;4.008;2024-01-25T11:29:44;102457.63;;;17.07;46.05
13974;BME280;7060;43.770;4.008;2024-01-25T11:32:12;102452.41;;;17.15;46.07
13974;BME280;7060;43.770;4.008;2024-01-25T11:34:41;102461.94;;;17.19;45.39
13974;BME280;7060;43.770;4.008;2024-01-25T11:37:10;102452.41;;;17.25;45.49
13974;BME280;7060;43.770;4.008;2024-01-25T11:39:39;102456.25;;;17.32;45.05
13974;BME280;7060;43.770;4.008;2024-01-25T11:42:08;102453.81;;;17.29;44.41
13974;BME280;7060;43.770;4.008;2024-01-25T11:44:36;102446.16;;;17.34;44.92
13974;BME280;7060;43.770;4.008;2024-01-25T11:47:04;102432.25;;;17.39;44.60
13974;BME280;7060;43.770;4.008;2024-01-25T11:49:32;102433.66;;;17.43;44.78
13974;BME280;7060;43.770;4.008;2024-01-25T11:52:02;102430.41;;;17.49;45.03
13974;BME280;7060;43.770;4.008;2024-01-25T11:54:31;102430.66;;;17.55;44.61
13974;BME280;7060;43.770;4.008;2024-01-25T11:57:00;102428.25;;;17.62;44.50
13974;BME280;7060;43.770;4.008;2024-01-25T11:59:29;102419.59;;;17.68;45.11
13974;BME280;7060;43.770;4.008;2024-01-25T12:01:57;102414.34;;;17.76;45.05
13974;BME280;7060;43.770;4.008;2024-01-25T12:04:25;102411.31;;;17.79;44.96
13974;BME280;7060;43.770;4.008;2024-01-25T12:06:55;102416.56;;;17.81;44.29
13974;BME280;7060;43.770;4.008;2024-01-25T12:09:23;102418.41;;;17.80;44.35
13974;BME280;7060;43.770;4.008;2024-01-25T12:11:51;102412.31;;;17.78;44.35
13974;BME280;7060;43.770;4.008;2024-01-25T12:14:23;102404.06;;;17.80;44.15
13974;BME280;7060;43.770;4.008;2024-01-25T12:16:51;102390.69;;;17.78;44.46
13974;BME280;7060;43.770;4.008;2024-01-25T12:19:20;102390.56;;;17.80;44.27
13974;BME280;7060;43.770;4.008;2024-01-25T12:21:48;102380.59;;;17.80;43.35
13974;BME280;7060;43.770;4.008;2024-01-25T12:24:19;102375.91;;;17.82;43.90
13974;BME280;7060;43.770;4.008;2024-01-25T12:26:47;102358.59;;;17.75;44.15
13974;BME280;7060;43.770;4.008;2024-01-25T12:29:15;102366.09;;;17.81;43.72
13974;BME280;7060;43.770;4.008;2024-01-25T12:31:46;102361.53;;;17.82;42.67
13974;BME280;7060;43.770;4.008;2024-01-25T12:34:14;102354.06;;;17.76;43.62
13974;BME280;7060;43.770;4.008;2024-01-25T12:36:43;102351.22;;;17.77;43.85
13974;BME280;7060;43.770;4.008;2024-01-25T12:39:11;102352.06;;;17.78;44.13
13974;BME280;7060;43.770;4.008;2024-01-25T12:41:45;102348.81;;;17.74;43.14
13974;BME280;7060;43.770;4.008;2024-01-25T12:44:14;102345.09;;;17.75;43.29
13974;BME280;7060;43.770;4.008;2024-01-25T12:46:42;102338.72;;;17.76;43.15
13974;BME280;7060;43.770;4.008;2024-01-25T12:49:12;102335.69;;;17.79;42.77
13974;BME280;7060;43.770;4.008;2024-01-25T12:51:40;102328.44;;;17.80;43.02
13974;BME280;7060;43.770;4.008;2024-01-25T12:54:08;102327.28;;;17.82;42.43
13974;BME280;7060;43.770;4.008;2024-01-25T12:56:36;102321.59;;;17.85;42.27
13974;BME280;7060;43.770;4.008;2024-01-25T12:59:04;102316.88;;;17.87;42.34
13974;BME280;7060;43.770;4.008;2024-01-25T13:01:33;102314.91;;;17.89;42.64
13974;BME280;7060;43.770;4.008;2024-01-25T13:04:01;102306.50;;;17.92;42.85
13974;BME280;7060;43.770;4.008;2024-01-25T13:06:31;102302.94;;;17.92;42.71
13974;BME280;7060;43.770;4.008;2024-01-25T13:08:59;102301.50;;;17.98;42.59
13974;BME280;7060;43.770;4.008;2024-01-25T13:11:27;102303.63;;;18.04;42.10
13974;BME280;7060;43.770;4.008;2024-01-25T13:13:55;102305.53;;;18.11;42.52
13974;BME280;7060;43.770;4.008;2024-01-25T13:16:23;102305.09;;;18.16;42.45
13974;BME280;7060;43.770;4.008;2024-01-25T13:18:51;102303.09;;;18.18;42.06
13974;BME280;7060;43.770;4.008;2024-01-25T13:21:20;102304.91;;;18.27;42.06
13974;BME280;7060;43.770;4.008;2024-01-25T13:23:49;102294.84;;;18.37;41.80